Time;durP1;ratioP1;P1;durP2;ratioP2;P2;SDS_P1;SDS_P2;PMS_P1;PMS_P2;Temp;Humidity;BMP_temperature;BMP_pressure;BME280_temperature;BME280_humidity;BME280_pressure;Samples;Min_cycle;Max_cycle;Signal;HPM_P1;HPM_P2
2023/01/18 00:01:05;;;;;;;;;;;26.30;99.90;;;;;;5033529;28;19919;-71
2023/01/18 00:03:33;;;;;;;;;;;26.40;99.90;;;;;;5034350;28;19972;-69
2023/01/18 00:06:03;;;;;;;;;;;26.40;99.90;;;;;;5046413;28;19909;-80
2023/01/18 00:08:30;;;;;;;;;;;26.50;99.90;;;;;;5042556;28;20019;-80
2023/01/18 00:11:11;;;;;;;;;;;26.70;99.90;;;;;;5036941;28;19992;-83
2023/01/18 00:13:38;;;;;;;;;;;26.80;99.90;;;;;;5037142;28;19916;-78
2023/01/18 00:16:06;;;;;;;;;;;27.00;99.90;;;;;;5037197;28;19913;-79
2023/01/18 00:18:34;;;;;;;;;;;26.90;99.90;;;;;;5037637;28;19909;-73
2023/01/18 00:21:01;;;;;;;;;;;26.90;99.90;;;;;;5036669;28;19917;-85
2023/01/18 00:23:28;;;;;;;;;;;27.00;99.90;;;;;;5036388;28;20376;-82
2023/01/18 00:26:05;;;;;;;;;;;27.10;99.90;;;;;;5036482;28;19913;-68
2023/01/18 00:28:32;;;;;;;;;;;27.20;99.90;;;;;;5037458;28;19953;-83
2023/01/18 00:30:58;;;;;;;;;;;27.30;99.90;;;;;;5036879;28;19909;-75
2023/01/18 00:33:25;;;;;;;;;;;27.30;99.90;;;;;;5036348;28;19975;-76
2023/01/18 00:35:58;;;;;;;;;;;27.30;99.90;;;;;;5036708;28;19916;-72
2023/01/18 00:38:27;;;;;;;;;;;27.30;99.90;;;;;;5036363;28;19920;-68
2023/01/18 00:40:53;;;;;;;;;;;27.50;99.90;;;;;;5036383;28;20359;-75
2023/01/18 00:43:38;;;;;;;;;;;27.70;99.90;;;;;;5036548;28;19914;-70
2023/01/18 00:46:06;;;;;;;;;;;27.70;99.90;;;;;;5037911;28;20004;-90
2023/01/18 00:48:33;;;;;;;;;;;27.80;99.90;;;;;;5037939;28;19916;-81
2023/01/18 00:51:00;;;;;;;;;;;27.90;99.90;;;;;;5037024;28;19915;-78
2023/01/18 00:53:27;;;;;;;;;;;27.90;99.90;;;;;;5035847;28;19971;-68
2023/01/18 00:55:54;;;;;;;;;;;28.00;99.90;;;;;;5035811;28;19909;-74
2023/01/18 00:58:21;;;;;;;;;;;28.10;99.90;;;;;;5036111;28;20368;-80
2023/01/18 01:00:49;;;;;;;;;;;28.10;99.90;;;;;;5036422;28;20388;-83
2023/01/18 01:03:16;;;;;;;;;;;28.20;99.90;;;;;;5035473;28;19963;-82
2023/01/18 01:08:27;;;;;;;;;;;27.90;99.90;;;;;;5036173;28;20334;-82
2023/01/18 01:11:03;;;;;;;;;;;27.80;99.90;;;;;;5051325;28;19913;-76
2023/01/18 01:27:13;;;;;;;;;;;28.80;99.90;;;;;;5037440;28;19916;-70
2023/01/18 01:29:39;;;;;;;;;;;29.40;99.90;;;;;;5035967;28;19917;-68
2023/01/18 01:32:06;;;;;;;;;;;29.70;99.90;;;;;;5035986;28;20043;-69
2023/01/18 01:34:33;;;;;;;;;;;30.10;99.90;;;;;;5035806;28;19913;-85
2023/01/18 01:36:59;;;;;;;;;;;30.40;99.90;;;;;;5035765;28;19909;-69
2023/01/18 01:39:26;;;;;;;;;;;30.60;99.90;;;;;;5035306;28;19978;-75
2023/01/18 01:41:53;;;;;;;;;;;30.80;99.90;;;;;;5035255;28;19913;-74
2023/01/18 01:44:19;;;;;;;;;;;30.60;99.90;;;;;;5035112;28;20012;-69
2023/01/18 01:46:48;;;;;;;;;;;30.60;99.90;;;;;;5035717;28;19910;-71
2023/01/18 01:49:17;;;;;;;;;;;30.90;99.90;;;;;;5036261;28;20075;-84
2023/01/18 01:51:46;;;;;;;;;;;31.30;99.90;;;;;;5035545;28;19955;-68
2023/01/18 01:54:15;;;;;;;;;;;31.50;99.90;;;;;;5034633;28;19909;-68
2023/01/18 01:56:42;;;;;;;;;;;31.60;99.90;;;;;;5034942;28;19943;-69
2023/01/18 01:59:10;;;;;;;;;;;31.60;99.90;;;;;;5034206;28;20003;-71
2023/01/18 02:01:42;;;;;;;;;;;31.30;99.90;;;;;;5034275;28;19917;-68
2023/01/18 02:04:09;;;;;;;;;;;30.70;99.90;;;;;;5034781;28;19917;-69
2023/01/18 02:06:37;;;;;;;;;;;30.30;99.90;;;;;;5034493;28;19916;-68
2023/01/18 02:09:05;;;;;;;;;;;30.00;99.90;;;;;;5034248;28;20669;-68
2023/01/18 02:11:32;;;;;;;;;;;29.70;99.90;;;;;;5049147;28;19917;-68
2023/01/18 02:14:01;;;;;;;;;;;29.50;99.90;;;;;;5034481;28;20054;-68
2023/01/18 02:16:31;;;;;;;;;;;29.30;99.90;;;;;;5033367;28;19910;-70
2023/01/18 02:18:57;;;;;;;;;;;29.30;99.90;;;;;;5034537;28;19910;-68
2023/01/18 02:21:24;;;;;;;;;;;29.20;99.90;;;;;;5033747;28;20272;-69
2023/01/18 02:24:08;;;;;;;;;;;29.20;99.90;;;;;;5034331;28;19909;-68
2023/01/18 02:26:47;;;;;;;;;;;29.00;99.90;;;;;;5034228;28;20000;-81
2023/01/18 02:29:31;;;;;;;;;;;28.70;99.90;;;;;;5033895;28;19909;-68
2023/01/18 02:32:13;;;;;;;;;;;28.60;99.90;;;;;;5033841;28;19910;-69
2023/01/18 02:34:40;;;;;;;;;;;28.60;99.90;;;;;;5034234;28;19910;-68
2023/01/18 02:37:07;;;;;;;;;;;28.50;99.90;;;;;;5034152;28;20371;-75
2023/01/18 02:39:37;;;;;;;;;;;28.60;99.90;;;;;;5033987;28;19916;-69
2023/01/18 02:47:48;;;;;;;;;;;28.40;99.90;;;;;;5035631;28;19959;-68
2023/01/18 02:50:25;;;;;;;;;;;28.30;99.90;;;;;;5035276;28;20419;-69
2023/01/18 02:52:52;;;;;;;;;;;28.20;99.90;;;;;;5033703;28;19972;-70
2023/01/18 02:55:25;;;;;;;;;;;28.30;99.90;;;;;;5035142;28;19909;-68
2023/01/18 02:57:55;;;;;;;;;;;28.40;99.90;;;;;;5034940;28;20363;-68
2023/01/18 03:00:23;;;;;;;;;;;28.30;99.90;;;;;;5034107;28;20279;-72
2023/01/18 03:02:50;;;;;;;;;;;28.20;99.90;;;;;;5033906;28;19917;-69
2023/01/18 03:05:20;;;;;;;;;;;28.30;99.90;;;;;;5033590;28;19917;-67
2023/01/18 03:08:16;;;;;;;;;;;28.30;99.90;;;;;;5033730;28;19909;-69
2023/01/18 03:11:01;;;;;;;;;;;28.40;99.90;;;;;;5024191;28;19916;-68
2023/01/18 03:13:30;;;;;;;;;;;28.40;99.90;;;;;;5033900;28;20320;-69
2023/01/18 03:16:03;;;;;;;;;;;28.50;99.90;;;;;;5034127;28;19909;-73
2023/01/18 03:19:00;;;;;;;;;;;28.60;99.90;;;;;;5033684;28;19988;-70
2023/01/18 03:21:36;;;;;;;;;;;28.70;99.90;;;;;;5033638;28;19920;-69
2023/01/18 03:24:06;;;;;;;;;;;28.70;99.90;;;;;;5049100;28;19917;-69
2023/01/18 03:26:35;;;;;;;;;;;28.60;99.90;;;;;;5033793;28;19913;-71
2023/01/18 03:34:47;;;;;;;;;;;28.50;99.90;;;;;;5035116;28;19955;-69
2023/01/18 03:37:17;;;;;;;;;;;28.40;99.90;;;;;;5033504;28;20000;-68
2023/01/18 03:39:50;;;;;;;;;;;28.50;99.90;;;;;;5034013;28;19915;-85
2023/01/18 03:42:22;;;;;;;;;;;28.60;99.90;;;;;;5020184;28;19923;-73
2023/01/18 03:44:59;;;;;;;;;;;28.70;99.90;;;;;;5039778;28;19916;-76
2023/01/18 03:47:26;;;;;;;;;;;28.70;99.90;;;;;;5039157;28;19909;-68
2023/01/18 03:49:53;;;;;;;;;;;28.60;99.90;;;;;;5038857;28;19956;-74
2023/01/18 03:52:28;;;;;;;;;;;28.40;99.90;;;;;;5037605;28;19909;-68
2023/01/18 03:54:55;;;;;;;;;;;28.20;99.90;;;;;;5037387;28;20334;-68
2023/01/18 03:57:32;;;;;;;;;;;28.10;99.90;;;;;;5037241;28;20420;-68
2023/01/18 04:00:00;;;;;;;;;;;28.10;99.90;;;;;;5037241;28;20016;-67
2023/01/18 04:02:27;;;;;;;;;;;28.10;99.90;;;;;;5036902;28;20035;-68
2023/01/18 04:04:56;;;;;;;;;;;28.00;99.90;;;;;;5037234;28;19909;-76
2023/01/18 04:07:25;;;;;;;;;;;28.00;99.90;;;;;;5038557;28;19935;-68
2023/01/18 04:09:52;;;;;;;;;;;28.00;99.90;;;;;;5036959;28;19909;-71
2023/01/18 04:12:19;;;;;;;;;;;28.10;99.90;;;;;;5036435;28;19916;-67
2023/01/18 04:14:45;;;;;;;;;;;28.10;99.90;;;;;;5036976;28;19920;-69
2023/01/18 04:17:12;;;;;;;;;;;28.20;99.90;;;;;;5036767;28;19955;-70
2023/01/18 04:19:41;;;;;;;;;;;28.20;99.90;;;;;;5036694;28;19949;-69
2023/01/18 04:22:08;;;;;;;;;;;28.20;99.90;;;;;;5036424;28;20014;-69
2023/01/18 04:24:35;;;;;;;;;;;28.20;99.90;;;;;;5036372;28;20337;-68
2023/01/18 04:27:02;;;;;;;;;;;28.10;99.90;;;;;;5036396;28;19917;-67
2023/01/18 04:29:29;;;;;;;;;;;28.10;99.90;;;;;;5036437;28;20293;-68
2023/01/18 04:31:56;;;;;;;;;;;27.90;99.90;;;;;;5036257;28;19917;-68
2023/01/18 04:34:22;;;;;;;;;;;27.80;99.90;;;;;;5051941;28;19919;-68
2023/01/18 04:36:49;;;;;;;;;;;27.70;99.90;;;;;;5036544;28;19909;-67
2023/01/18 04:39:16;;;;;;;;;;;27.70;99.90;;;;;;5036183;28;19932;-69
2023/01/18 04:41:43;;;;;;;;;;;27.80;99.90;;;;;;5035967;28;19917;-68
2023/01/18 04:44:10;;;;;;;;;;;27.70;99.90;;;;;;5036643;28;19910;-67
2023/01/18 04:46:39;;;;;;;;;;;27.50;99.90;;;;;;5037219;28;19921;-68
2023/01/18 04:49:08;;;;;;;;;;;27.40;99.90;;;;;;5037064;28;19909;-68
2023/01/18 04:51:37;;;;;;;;;;;27.20;99.90;;;;;;5035866;28;20299;-68
2023/01/18 04:54:04;;;;;;;;;;;27.20;99.90;;;;;;5051570;28;19917;-68
2023/01/18 04:56:30;;;;;;;;;;;27.20;99.90;;;;;;5036341;28;19910;-69
2023/01/18 04:58:57;;;;;;;;;;;27.20;99.90;;;;;;5036638;28;19921;-69
2023/01/18 05:01:23;;;;;;;;;;;27.20;99.90;;;;;;5036245;28;19953;-68
2023/01/18 05:03:52;;;;;;;;;;;27.20;99.90;;;;;;5037001;28;19913;-68
2023/01/18 05:06:19;;;;;;;;;;;27.20;99.90;;;;;;5038229;28;19909;-71
2023/01/18 05:08:45;;;;;;;;;;;27.30;99.90;;;;;;5037827;28;19913;-75
2023/01/18 05:11:13;;;;;;;;;;;27.30;99.90;;;;;;5051405;28;19919;-69
2023/01/18 05:13:40;;;;;;;;;;;27.10;99.90;;;;;;5050150;28;19909;-85
2023/01/18 05:16:11;;;;;;;;;;;27.00;99.90;;;;;;5053486;28;19943;-91
2023/01/18 05:18:38;;;;;;;;;;;27.00;99.90;;;;;;5050645;28;19909;-89
2023/01/18 05:21:05;;;;;;;;;;;26.90;99.90;;;;;;5051543;28;19909;-87
2023/01/18 05:23:31;;;;;;;;;;;26.80;99.90;;;;;;5048512;28;19909;-88
2023/01/18 05:25:58;;;;;;;;;;;26.70;99.90;;;;;;5049085;28;19909;-77
2023/01/18 05:28:26;;;;;;;;;;;26.50;99.90;;;;;;5057394;28;19970;-87
2023/01/18 05:30:53;;;;;;;;;;;26.50;99.90;;;;;;5042714;28;19909;-91
2023/01/18 05:33:21;;;;;;;;;;;26.50;99.90;;;;;;5038831;28;19913;-91
2023/01/18 05:35:54;;;;;;;;;;;26.50;99.90;;;;;;5038300;28;20271;-92
2023/01/18 05:38:22;;;;;;;;;;;26.50;99.90;;;;;;5038893;28;19909;-94
2023/01/18 05:40:51;;;;;;;;;;;26.40;99.90;;;;;;5039167;28;19909;-84
2023/01/18 05:43:18;;;;;;;;;;;26.40;99.90;;;;;;5052442;28;20372;-89
2023/01/18 05:45:48;;;;;;;;;;;26.20;99.90;;;;;;5037696;28;20356;-90
2023/01/18 05:48:15;;;;;;;;;;;26.20;99.90;;;;;;5037581;28;19913;-91
2023/01/18 05:50:47;;;;;;;;;;;26.20;99.90;;;;;;5042314;28;19909;-92
2023/01/18 05:53:15;;;;;;;;;;;26.30;99.90;;;;;;5043097;28;19909;-90
2023/01/18 05:55:42;;;;;;;;;;;26.20;99.90;;;;;;5039245;28;20390;-94
2023/01/18 05:58:09;;;;;;;;;;;26.30;99.90;;;;;;5038096;28;19919;-94
2023/01/18 06:00:35;;;;;;;;;;;26.20;99.90;;;;;;5036754;28;19913;-84
2023/01/18 06:03:02;;;;;;;;;;;26.20;99.90;;;;;;5037838;28;20448;-93
2023/01/18 06:05:29;;;;;;;;;;;26.10;99.90;;;;;;5037144;28;19955;-90
2023/01/18 06:07:56;;;;;;;;;;;26.10;99.90;;;;;;5037132;28;19941;-91
2023/01/18 06:10:22;;;;;;;;;;;26.00;99.90;;;;;;5036856;28;19917;-94
2023/01/18 06:12:49;;;;;;;;;;;26.00;99.90;;;;;;5036943;28;19909;-95
2023/01/18 06:15:16;;;;;;;;;;;26.00;99.90;;;;;;5037202;28;19969;-92
2023/01/18 06:17:43;;;;;;;;;;;25.90;99.90;;;;;;5037000;28;19955;-92
2023/01/18 06:20:11;;;;;;;;;;;25.90;99.90;;;;;;5019670;28;19916;-89
2023/01/18 06:22:38;;;;;;;;;;;25.80;99.90;;;;;;5038925;28;19917;-93
2023/01/18 06:25:04;;;;;;;;;;;25.80;99.90;;;;;;5036922;28;19909;-91
2023/01/18 06:27:31;;;;;;;;;;;25.80;99.90;;;;;;5035312;28;19948;-93
2023/01/18 06:29:58;;;;;;;;;;;25.70;99.90;;;;;;5035830;28;19963;-81
2023/01/18 06:32:24;;;;;;;;;;;25.70;99.90;;;;;;5034814;28;19928;-92
2023/01/18 06:34:51;;;;;;;;;;;25.60;99.90;;;;;;5036573;28;19913;-91
2023/01/18 06:37:18;;;;;;;;;;;25.60;99.90;;;;;;5036296;28;19916;-92
2023/01/18 06:39:44;;;;;;;;;;;25.70;99.90;;;;;;5036195;28;19909;-93
2023/01/18 06:42:11;;;;;;;;;;;25.60;99.90;;;;;;5035203;28;19917;-89
2023/01/18 06:44:37;;;;;;;;;;;25.60;99.90;;;;;;5035778;28;19979;-90
2023/01/18 06:47:04;;;;;;;;;;;25.50;99.90;;;;;;5037328;28;19916;-91
2023/01/18 06:49:32;;;;;;;;;;;25.40;99.90;;;;;;5055104;28;19926;-75
2023/01/18 06:51:59;;;;;;;;;;;25.40;99.90;;;;;;5045479;28;19920;-82
2023/01/18 06:54:25;;;;;;;;;;;25.40;99.90;;;;;;5035785;28;20339;-94
2023/01/18 06:56:52;;;;;;;;;;;25.40;99.90;;;;;;5036111;28;19956;-93
2023/01/18 06:59:19;;;;;;;;;;;25.30;99.90;;;;;;5051690;28;20370;-92
2023/01/18 07:01:46;;;;;;;;;;;25.30;99.90;;;;;;5036992;28;19923;-93
2023/01/18 07:04:15;;;;;;;;;;;25.30;99.90;;;;;;5037920;28;19909;-92
2023/01/18 07:06:42;;;;;;;;;;;25.30;99.90;;;;;;5038732;28;20368;-87
2023/01/18 07:09:09;;;;;;;;;;;25.20;99.90;;;;;;5041021;28;19913;-92
2023/01/18 07:11:36;;;;;;;;;;;25.20;99.90;;;;;;5037311;28;19910;-82
2023/01/18 07:14:02;;;;;;;;;;;25.20;99.90;;;;;;5034565;28;20375;-95
2023/01/18 07:16:29;;;;;;;;;;;25.20;99.90;;;;;;5033971;28;20007;-71
2023/01/18 07:18:59;;;;;;;;;;;25.20;99.90;;;;;;5034751;28;20342;-88
2023/01/18 07:21:28;;;;;;;;;;;25.10;99.90;;;;;;5034715;28;19935;-93
2023/01/18 07:23:56;;;;;;;;;;;25.10;99.90;;;;;;5036016;28;19964;-87
2023/01/18 07:26:24;;;;;;;;;;;25.10;99.90;;;;;;5036084;28;19916;-79
2023/01/18 07:28:51;;;;;;;;;;;25.10;99.90;;;;;;5037421;28;19909;-80
2023/01/18 07:31:19;;;;;;;;;;;25.10;99.90;;;;;;5038747;28;19913;-94
2023/01/18 07:33:45;;;;;;;;;;;25.10;99.90;;;;;;5039743;28;20502;-73
2023/01/18 07:36:12;;;;;;;;;;;25.10;99.90;;;;;;5030046;28;19913;-78
2023/01/18 07:38:39;;;;;;;;;;;25.10;99.90;;;;;;5025632;28;19960;-71
2023/01/18 07:41:10;;;;;;;;;;;25.10;99.90;;;;;;5025196;28;19971;-83
2023/01/18 07:43:37;;;;;;;;;;;25.10;99.90;;;;;;5026211;28;19921;-71
2023/01/18 07:46:04;;;;;;;;;;;25.10;99.90;;;;;;5025178;28;19913;-80
2023/01/18 07:48:31;;;;;;;;;;;25.00;99.90;;;;;;5027686;28;19913;-82
2023/01/18 07:51:00;;;;;;;;;;;25.10;99.90;;;;;;5026081;28;19990;-74
2023/01/18 07:53:26;;;;;;;;;;;25.00;99.90;;;;;;5026225;28;19932;-73
2023/01/18 07:55:54;;;;;;;;;;;25.00;99.90;;;;;;5026336;28;19913;-67
2023/01/18 07:58:21;;;;;;;;;;;25.00;99.90;;;;;;5026779;28;19921;-74
2023/01/18 08:00:47;;;;;;;;;;;25.00;99.90;;;;;;5027425;28;19920;-77
2023/01/18 08:03:15;;;;;;;;;;;25.00;99.90;;;;;;5026573;28;20386;-75
2023/01/18 08:05:42;;;;;;;;;;;25.00;99.90;;;;;;5027064;28;19959;-83
2023/01/18 08:08:10;;;;;;;;;;;24.90;99.90;;;;;;5029827;28;19952;-88
2023/01/18 08:10:37;;;;;;;;;;;25.00;99.90;;;;;;5027555;28;20000;-67
2023/01/18 08:13:04;;;;;;;;;;;24.90;99.90;;;;;;5028429;28;19913;-71
2023/01/18 08:15:31;;;;;;;;;;;24.90;99.90;;;;;;5028057;28;19920;-69
2023/01/18 08:18:01;;;;;;;;;;;24.90;99.90;;;;;;5028731;28;19909;-82
2023/01/18 08:20:29;;;;;;;;;;;24.90;99.90;;;;;;5026598;28;19920;-74
2023/01/18 08:22:56;;;;;;;;;;;24.80;99.90;;;;;;5028118;28;19921;-71
2023/01/18 08:25:28;;;;;;;;;;;24.80;99.90;;;;;;5027548;28;20232;-74
2023/01/18 08:27:58;;;;;;;;;;;24.80;99.90;;;;;;5028377;28;20573;-88
2023/01/18 08:30:27;;;;;;;;;;;24.80;99.90;;;;;;5030583;28;19924;-69
2023/01/18 08:32:55;;;;;;;;;;;24.80;99.90;;;;;;5031081;28;19951;-81
2023/01/18 08:35:21;;;;;;;;;;;24.80;99.90;;;;;;5030457;28;19920;-73
2023/01/18 08:37:48;;;;;;;;;;;24.80;99.90;;;;;;5030630;28;20060;-85
2023/01/18 08:40:15;;;;;;;;;;;24.80;99.90;;;;;;5035523;28;19913;-69
2023/01/18 08:42:41;;;;;;;;;;;24.80;99.90;;;;;;5031646;28;19921;-74
2023/01/18 08:45:08;;;;;;;;;;;24.80;99.90;;;;;;5031433;28;19928;-68
2023/01/18 08:47:35;;;;;;;;;;;24.80;99.90;;;;;;5034172;28;19920;-73
2023/01/18 08:50:02;;;;;;;;;;;24.80;99.90;;;;;;5030995;28;20352;-70
2023/01/18 08:52:28;;;;;;;;;;;24.80;99.90;;;;;;5026451;28;19920;-72
2023/01/18 08:54:55;;;;;;;;;;;24.80;99.90;;;;;;5012965;28;19924;-70
2023/01/18 08:57:22;;;;;;;;;;;24.80;99.90;;;;;;5012294;28;20639;-68
2023/01/18 08:59:49;;;;;;;;;;;24.80;99.90;;;;;;5011520;28;19936;-78
2023/01/18 09:02:17;;;;;;;;;;;24.80;99.90;;;;;;5015295;28;19918;-70
2023/01/18 09:04:47;;;;;;;;;;;24.80;99.90;;;;;;5016434;28;19910;-80
2023/01/18 09:07:14;;;;;;;;;;;24.80;99.90;;;;;;5016353;28;19996;-78
2023/01/18 09:09:41;;;;;;;;;;;24.80;99.90;;;;;;5016188;28;19910;-67
2023/01/18 09:12:08;;;;;;;;;;;24.80;99.90;;;;;;5016228;28;19910;-76
2023/01/18 09:14:35;;;;;;;;;;;24.80;99.90;;;;;;5016523;28;20424;-67
2023/01/18 09:17:02;;;;;;;;;;;24.80;99.90;;;;;;5016185;28;19932;-70
2023/01/18 09:19:28;;;;;;;;;;;24.80;99.90;;;;;;5011895;28;19920;-79
2023/01/18 09:21:55;;;;;;;;;;;24.90;99.90;;;;;;5008725;28;20021;-69
2023/01/18 09:24:22;;;;;;;;;;;24.80;99.90;;;;;;5011316;28;19925;-77
2023/01/18 09:26:52;;;;;;;;;;;24.80;99.90;;;;;;5011883;28;19960;-79
2023/01/18 09:29:19;;;;;;;;;;;24.80;99.90;;;;;;5010225;28;20019;-68
2023/01/18 09:31:47;;;;;;;;;;;24.90;99.90;;;;;;5012335;28;19913;-82
2023/01/18 09:34:17;;;;;;;;;;;25.10;99.90;;;;;;5009919;28;20307;-84
2023/01/18 09:36:44;;;;;;;;;;;25.20;99.90;;;;;;5012859;28;19968;-68
2023/01/18 09:39:10;;;;;;;;;;;25.30;99.90;;;;;;5010480;28;19921;-76
2023/01/18 09:41:38;;;;;;;;;;;25.30;99.90;;;;;;5009140;28;19972;-76
2023/01/18 09:44:20;;;;;;;;;;;25.30;99.90;;;;;;5008159;28;19913;-69
2023/01/18 09:46:50;;;;;;;;;;;25.00;99.90;;;;;;5008832;28;19920;-78
2023/01/18 09:49:28;;;;;;;;;;;24.70;99.90;;;;;;5008694;28;19914;-71
2023/01/18 09:52:06;;;;;;;;;;;24.60;99.90;;;;;;5007763;28;19914;-79
2023/01/18 09:54:59;;;;;;;;;;;24.40;99.90;;;;;;5027646;28;20322;-76
2023/01/18 09:57:43;;;;;;;;;;;24.00;99.90;;;;;;5025249;28;19920;-77
2023/01/18 10:00:19;;;;;;;;;;;23.80;99.90;;;;;;5027534;28;19957;-70
2023/01/18 10:02:48;;;;;;;;;;;23.70;99.90;;;;;;5026580;28;20006;-76
2023/01/18 10:05:17;;;;;;;;;;;23.60;99.90;;;;;;5026591;28;19921;-83
2023/01/18 10:08:06;;;;;;;;;;;23.50;99.90;;;;;;5027015;28;19913;-79
2023/01/18 10:10:36;;;;;;;;;;;23.50;99.90;;;;;;5027173;28;19920;-81
2023/01/18 10:13:09;;;;;;;;;;;23.30;99.90;;;;;;5026486;28;19913;-80
2023/01/18 10:15:36;;;;;;;;;;;23.20;99.90;;;;;;5026004;28;20277;-70
2023/01/18 10:18:02;;;;;;;;;;;23.10;99.90;;;;;;5026283;28;19913;-69
2023/01/18 10:20:35;;;;;;;;;;;23.00;99.90;;;;;;5007734;28;20035;-70
2023/01/18 10:23:14;;;;;;;;;;;22.90;99.90;;;;;;5025961;28;19921;-78
2023/01/18 10:25:41;;;;;;;;;;;22.90;99.90;;;;;;5025500;28;19946;-82
2023/01/18 10:28:12;;;;;;;;;;;22.80;99.90;;;;;;5026104;28;19913;-68
2023/01/18 10:31:02;;;;;;;;;;;22.80;99.90;;;;;;5025910;28;19920;-70
2023/01/18 10:33:40;;;;;;;;;;;22.70;99.90;;;;;;5020214;28;19913;-70
2023/01/18 10:36:13;;;;;;;;;;;22.70;99.90;;;;;;5025747;28;19917;-69
2023/01/18 10:38:40;;;;;;;;;;;22.60;99.90;;;;;;5025521;28;19948;-71
2023/01/18 10:41:14;;;;;;;;;;;22.60;99.90;;;;;;5025513;28;19951;-75
2023/01/18 10:43:40;;;;;;;;;;;22.60;99.90;;;;;;5025691;28;19975;-69
2023/01/18 10:46:15;;;;;;;;;;;22.70;99.90;;;;;;5025481;28;19921;-71
2023/01/18 10:48:49;;;;;;;;;;;22.50;99.90;;;;;;5034048;28;19916;-69
2023/01/18 10:51:37;;;;;;;;;;;22.40;99.90;;;;;;5033240;28;19917;-71
2023/01/18 10:54:25;;;;;;;;;;;22.40;99.90;;;;;;5033725;28;19916;-72
2023/01/18 10:57:02;;;;;;;;;;;22.40;99.90;;;;;;5033920;28;19916;-78
2023/01/18 10:59:35;;;;;;;;;;;22.30;99.90;;;;;;5033516;28;20374;-74
2023/01/18 11:02:02;;;;;;;;;;;22.20;99.90;;;;;;5033397;28;20406;-76
2023/01/18 11:04:30;;;;;;;;;;;22.20;99.90;;;;;;5033631;28;20291;-70
2023/01/18 11:07:01;;;;;;;;;;;22.20;99.90;;;;;;5033412;28;20257;-71
2023/01/18 11:09:48;;;;;;;;;;;22.20;99.90;;;;;;5024365;28;19920;-71
2023/01/18 11:12:42;;;;;;;;;;;22.20;99.90;;;;;;5017342;28;19913;-71
2023/01/18 11:15:14;;;;;;;;;;;22.20;99.90;;;;;;5025296;28;19920;-77
2023/01/18 11:17:56;;;;;;;;;;;22.20;99.90;;;;;;5024971;28;19913;-72
2023/01/18 11:20:29;;;;;;;;;;;22.10;99.90;;;;;;5024748;28;19987;-82
2023/01/18 11:22:59;;;;;;;;;;;22.10;99.90;;;;;;5006561;28;19932;-74
2023/01/18 11:25:37;;;;;;;;;;;22.10;99.90;;;;;;5024964;28;20636;-73
2023/01/18 11:28:06;;;;;;;;;;;22.00;99.90;;;;;;5024658;28;20012;-74
2023/01/18 11:30:33;;;;;;;;;;;22.10;99.90;;;;;;5024781;28;19913;-78
2023/01/18 11:33:00;;;;;;;;;;;22.00;99.90;;;;;;5024700;28;19913;-75
2023/01/18 11:35:30;;;;;;;;;;;22.00;99.90;;;;;;5039281;28;19913;-76
2023/01/18 11:38:00;;;;;;;;;;;22.00;99.90;;;;;;5024831;28;19913;-69
2023/01/18 11:40:28;;;;;;;;;;;22.00;99.90;;;;;;5024477;28;20358;-78
2023/01/18 11:43:02;;;;;;;;;;;22.00;99.90;;;;;;5024675;28;19943;-68
2023/01/18 11:45:47;;;;;;;;;;;22.00;99.90;;;;;;5024519;28;19920;-71
2023/01/18 11:48:20;;;;;;;;;;;22.00;99.90;;;;;;5024386;28;19990;-74
2023/01/18 11:50:51;;;;;;;;;;;22.20;99.90;;;;;;5024305;28;19913;-75
2023/01/18 11:53:21;;;;;;;;;;;22.20;99.90;;;;;;5039386;28;19917;-76
2023/01/18 11:56:05;;;;;;;;;;;22.30;99.90;;;;;;5030192;28;20311;-69
2023/01/18 11:58:32;;;;;;;;;;;22.20;99.90;;;;;;5033014;28;19917;-69
2023/01/18 12:01:02;;;;;;;;;;;22.20;99.90;;;;;;5032883;28;19909;-67
2023/01/18 12:03:38;;;;;;;;;;;22.00;99.90;;;;;;5051507;28;19917;-68
2023/01/18 12:06:14;;;;;;;;;;;22.00;99.90;;;;;;5037000;28;19913;-69
2023/01/18 12:08:50;;;;;;;;;;;21.90;99.90;;;;;;5037120;28;19970;-73
2023/01/18 12:11:42;;;;;;;;;;;21.90;99.90;;;;;;5036541;28;19909;-70
2023/01/18 12:14:12;;;;;;;;;;;21.90;99.90;;;;;;5036938;28;19913;-75
2023/01/18 12:16:41;;;;;;;;;;;21.80;99.90;;;;;;5036953;28;19916;-67
2023/01/18 12:19:23;;;;;;;;;;;21.80;99.90;;;;;;5036893;28;20368;-68
2023/01/18 12:21:50;;;;;;;;;;;21.90;99.90;;;;;;5036239;28;19913;-68
2023/01/18 12:24:32;;;;;;;;;;;21.90;99.90;;;;;;5036913;28;20364;-73
2023/01/18 12:27:16;;;;;;;;;;;22.00;99.90;;;;;;5036856;28;19916;-68
2023/01/18 12:29:52;;;;;;;;;;;22.00;99.90;;;;;;5036559;28;19909;-69
2023/01/18 12:32:34;;;;;;;;;;;22.00;99.90;;;;;;5036749;28;19936;-75
2023/01/18 12:35:01;;;;;;;;;;;21.80;99.90;;;;;;5036744;28;19963;-68
2023/01/18 12:37:27;;;;;;;;;;;21.80;99.90;;;;;;5036318;28;19952;-70
2023/01/18 12:40:12;;;;;;;;;;;21.90;99.90;;;;;;5036358;28;19909;-75
2023/01/18 12:42:54;;;;;;;;;;;21.90;99.90;;;;;;5036541;28;19917;-82
2023/01/18 12:45:27;;;;;;;;;;;21.90;99.90;;;;;;5036709;28;19920;-83
2023/01/18 12:48:03;;;;;;;;;;;22.00;99.90;;;;;;5036833;28;20011;-75
2023/01/18 12:50:31;;;;;;;;;;;22.00;99.90;;;;;;5035984;28;19986;-74
2023/01/18 12:53:00;;;;;;;;;;;21.90;99.90;;;;;;5036536;28;19909;-82
2023/01/18 12:55:30;;;;;;;;;;;21.90;99.90;;;;;;5036508;28;19925;-75
2023/01/18 12:57:58;;;;;;;;;;;22.00;99.90;;;;;;5036485;28;19917;-82
2023/01/18 13:00:25;;;;;;;;;;;22.00;99.90;;;;;;5036509;28;19921;-70
2023/01/18 13:02:54;;;;;;;;;;;22.00;99.90;;;;;;5036735;28;20307;-78
2023/01/18 13:05:42;;;;;;;;;;;22.00;99.90;;;;;;5036488;28;20004;-80
2023/01/18 13:08:13;;;;;;;;;;;22.00;99.90;;;;;;5037066;28;20274;-77
2023/01/18 13:10:40;;;;;;;;;;;22.10;99.90;;;;;;5037046;28;20004;-71
2023/01/18 13:13:11;;;;;;;;;;;22.20;99.90;;;;;;5035949;28;19909;-78
2023/01/18 13:15:45;;;;;;;;;;;22.20;99.90;;;;;;5037071;28;20390;-80
2023/01/18 13:18:18;;;;;;;;;;;22.20;99.90;;;;;;5036155;28;19947;-75
2023/01/18 13:20:56;;;;;;;;;;;22.20;99.90;;;;;;5035624;28;19909;-79
2023/01/18 13:23:23;;;;;;;;;;;22.20;99.90;;;;;;5035634;28;19917;-77
2023/01/18 13:25:53;;;;;;;;;;;22.20;99.90;;;;;;5035871;28;19978;-82
2023/01/18 13:28:22;;;;;;;;;;;22.30;99.90;;;;;;5035767;28;19952;-82
2023/01/18 13:30:48;;;;;;;;;;;22.20;99.90;;;;;;5035197;28;19954;-82
2023/01/18 13:33:21;;;;;;;;;;;22.20;99.90;;;;;;5035359;28;19909;-82
2023/01/18 13:35:52;;;;;;;;;;;22.20;99.90;;;;;;5035609;28;19916;-82
2023/01/18 13:38:21;;;;;;;;;;;22.20;99.90;;;;;;5035536;28;19910;-83
2023/01/18 13:41:01;;;;;;;;;;;22.20;99.90;;;;;;5035295;28;19920;-80
2023/01/18 13:43:39;;;;;;;;;;;22.10;99.90;;;;;;5035097;28;20287;-82
2023/01/18 13:46:05;;;;;;;;;;;22.10;99.90;;;;;;5035334;28;20014;-81
2023/01/18 13:48:44;;;;;;;;;;;22.20;99.90;;;;;;5035430;28;19931;-82
2023/01/18 13:51:30;;;;;;;;;;;22.20;99.90;;;;;;5034832;28;19917;-79
2023/01/18 13:53:57;;;;;;;;;;;22.10;99.90;;;;;;5034944;28;20272;-83
2023/01/18 13:56:27;;;;;;;;;;;22.10;99.90;;;;;;5035254;28;19916;-81
2023/01/18 13:59:02;;;;;;;;;;;22.10;99.90;;;;;;5034906;28;19917;-83
2023/01/18 14:01:33;;;;;;;;;;;22.10;99.90;;;;;;5034441;28;19916;-81
2023/01/18 14:04:18;;;;;;;;;;;22.10;99.90;;;;;;5034877;28;19920;-77
2023/01/18 14:06:45;;;;;;;;;;;22.20;99.90;;;;;;5034898;28;20413;-82
2023/01/18 14:09:14;;;;;;;;;;;22.20;99.90;;;;;;5034593;28;20267;-76
2023/01/18 14:11:44;;;;;;;;;;;22.10;99.90;;;;;;5034319;28;19909;-81
2023/01/18 14:14:11;;;;;;;;;;;22.10;99.90;;;;;;5034721;28;19963;-82
2023/01/18 14:17:00;;;;;;;;;;;22.10;99.90;;;;;;5050036;28;19945;-82
2023/01/18 14:19:28;;;;;;;;;;;22.00;99.90;;;;;;5028846;28;19909;-81
2023/01/18 14:22:04;;;;;;;;;;;22.00;99.90;;;;;;5034085;28;19971;-81
2023/01/18 14:24:31;;;;;;;;;;;22.00;99.90;;;;;;5034091;28;19913;-81
2023/01/18 14:26:59;;;;;;;;;;;21.90;99.90;;;;;;5034576;28;19909;-81
2023/01/18 14:29:32;;;;;;;;;;;22.00;99.90;;;;;;5034068;28;20307;-79
2023/01/18 14:32:00;;;;;;;;;;;22.00;99.90;;;;;;5034071;28;19909;-81
2023/01/18 14:34:29;;;;;;;;;;;22.00;99.90;;;;;;5034211;28;19916;-81
2023/01/18 14:36:56;;;;;;;;;;;22.00;99.90;;;;;;5034329;28;19919;-80
2023/01/18 14:39:23;;;;;;;;;;;22.10;99.90;;;;;;5034074;28;19909;-81
2023/01/18 14:41:57;;;;;;;;;;;22.20;99.90;;;;;;5033796;28;19967;-80
2023/01/18 14:44:26;;;;;;;;;;;22.10;99.90;;;;;;5034222;28;19909;-80
2023/01/18 14:46:55;;;;;;;;;;;22.00;99.90;;;;;;5033962;28;19909;-82
2023/01/18 14:49:36;;;;;;;;;;;22.00;99.90;;;;;;5033763;28;20360;-81
2023/01/18 14:52:03;;;;;;;;;;;21.90;99.90;;;;;;5034036;28;19916;-79
2023/01/18 14:54:30;;;;;;;;;;;21.80;99.90;;;;;;5016204;28;19909;-80
2023/01/18 14:57:00;;;;;;;;;;;21.90;99.90;;;;;;5033953;28;19909;-81
2023/01/18 14:59:32;;;;;;;;;;;21.90;99.90;;;;;;5033430;28;20376;-81
2023/01/18 15:01:59;;;;;;;;;;;21.90;99.90;;;;;;5033415;28;20318;-81